Time;durP1;ratioP1;P1;durP2;ratioP2;P2;SDS_P1;SDS_P2;PMS_P1;PMS_P2;Temp;Humidity;BMP_temperature;BMP_pressure;BME280_temperature;BME280_humidity;BME280_pressure;Samples;Min_cycle;Max_cycle;Signal;HPM_P1;HPM_P2
2023/02/25 00:01:05;;;;;;;2.30;2.10;;;;;;;19.00;51.04;95838.44;5018237;28;20215;-92
2023/02/25 00:03:31;;;;;;;2.50;2.30;;;;;;;19.11;50.81;95864.03;4995650;28;20251;-91
2023/02/25 00:06:00;;;;;;;2.60;2.40;;;;;;;19.30;50.66;95902.50;5010414;28;20202;-92
2023/02/25 00:08:28;;;;;;;2.40;2.20;;;;;;;19.91;51.01;95985.63;4985792;28;20191;-91
2023/02/25 00:11:03;;;;;;;2.67;2.47;;;;;;;19.05;50.71;95863.97;5006615;28;20223;-91
2023/02/25 00:13:29;;;;;;;2.57;2.37;;;;;;;19.01;50.90;95842.69;4999389;28;20186;-91
2023/02/25 00:15:56;;;;;;;2.47;2.27;;;;;;;19.61;50.86;95952.13;5007559;28;20282;-91
2023/02/25 00:18:24;;;;;;;2.47;2.23;;;;;;;19.97;50.80;96008.63;4983750;28;20196;-91
2023/02/25 00:20:51;;;;;;;2.53;2.33;;;;;;;19.86;51.35;95977.06;4981839;28;20211;-92
2023/02/25 00:23:18;;;;;;;2.93;2.40;;;;;;;19.26;50.84;95877.81;5017162;28;20250;-91
2023/02/25 00:25:45;;;;;;;2.70;2.50;;;;;;;18.75;50.86;95805.91;5038272;22;20208;-93
2023/02/25 00:28:11;;;;;;;2.53;2.33;;;;;;;18.23;50.69;95705.13;5026054;28;20185;-93
2023/02/25 00:30:39;;;;;;;2.40;2.20;;;;;;;19.01;50.67;95847.78;5031129;28;20190;-93
2023/02/25 00:33:06;;;;;;;2.30;2.10;;;;;;;18.62;50.80;95782.81;5032185;28;20208;-93
2023/02/25 00:35:33;;;;;;;2.30;2.10;;;;;;;17.73;50.78;95622.25;5043379;28;20192;-93
2023/02/25 00:38:00;;;;;;;2.47;2.27;;;;;;;17.32;50.63;95556.47;5021574;28;20190;-93
2023/02/25 00:40:41;;;;;;;2.50;2.30;;;;;;;18.06;50.69;95675.25;5024702;28;20178;-93
2023/02/25 00:43:08;;;;;;;2.07;1.97;;;;;;;17.69;50.52;95633.22;5026640;28;20183;-93
2023/02/25 00:45:38;;;;;;;2.97;2.27;;;;;;;18.77;50.65;95839.00;5034256;28;20185;-93
2023/02/25 00:48:05;;;;;;;2.77;2.50;;;;;;;17.16;50.67;95534.22;5047243;28;20202;-93
2023/02/25 00:50:33;;;;;;;2.50;2.30;;;;;;;17.89;50.57;95681.78;5061690;28;20185;-93
2023/02/25 00:53:00;;;;;;;2.20;2.00;;;;;;;20.39;50.63;96093.31;5017835;28;20196;-94
2023/02/25 00:55:32;;;;;;;2.20;2.00;;;;;;;18.63;50.54;95787.06;5046378;28;20322;-94
2023/02/25 00:58:02;;;;;;;2.40;2.20;;;;;;;18.74;50.52;95829.59;5026503;28;20186;-93
2023/02/25 01:00:29;;;;;;;2.10;1.90;;;;;;;18.11;50.53;95722.75;5066215;28;20177;-93
2023/02/25 01:03:06;;;;;;;2.20;2.00;;;;;;;17.99;50.61;95683.59;5042325;28;20185;-94
2023/02/25 01:05:33;;;;;;;2.63;2.20;;;;;;;20.37;50.86;96084.78;5025247;28;20196;-94
2023/02/25 01:08:03;;;;;;;4.37;2.20;;;;;;;20.18;50.63;96051.41;5019954;28;20189;-93
2023/02/25 01:10:30;;;;;;;2.10;2.00;;;;;;;19.84;50.79;96022.09;5015245;28;20194;-93
2023/02/25 01:12:56;;;;;;;2.33;2.00;;;;;;;17.14;50.86;95579.03;5026667;28;20190;-93
2023/02/25 01:15:24;;;;;;;2.30;2.10;;;;;;;20.01;50.76;96028.22;5048395;28;20201;-94
2023/02/25 01:17:51;;;;;;;2.30;2.03;;;;;;;18.65;50.85;95828.66;5032576;28;20193;-93
2023/02/25 01:20:18;;;;;;;2.40;2.20;;;;;;;18.40;50.64;95779.13;5042184;28;20174;-94
2023/02/25 01:22:45;;;;;;;2.40;2.20;;;;;;;18.86;50.81;95845.03;5040278;28;20226;-93
2023/02/25 01:25:15;;;;;;;2.27;2.07;;;;;;;17.88;50.81;95680.03;5027075;28;20247;-92
2023/02/25 01:27:42;;;;;;;2.63;2.20;;;;;;;18.68;50.79;95841.41;5034443;28;20199;-93
2023/02/25 01:30:11;;;;;;;2.73;2.40;;;;;;;18.07;50.86;95707.44;5056782;28;20216;-93
2023/02/25 01:32:38;;;;;;;2.43;2.17;;;;;;;20.35;50.89;96098.38;5038464;28;20190;-93
2023/02/25 01:35:05;;;;;;;2.57;2.37;;;;;;;18.70;50.79;95834.63;5037692;28;20201;-93
2023/02/25 01:37:32;;;;;;;2.37;2.17;;;;;;;18.64;50.80;95837.09;5030341;28;20182;-94
2023/02/25 01:39:59;;;;;;;2.27;2.10;;;;;;;18.33;50.87;95764.59;5045740;28;20181;-94
2023/02/25 01:42:29;;;;;;;2.03;1.83;;;;;;;19.85;50.70;96013.59;5050715;28;20181;-93
2023/02/25 01:45:15;;;;;;;2.23;2.03;;;;;;;20.34;50.71;96086.47;5027160;28;20178;-94
2023/02/25 01:47:42;;;;;;;2.03;1.90;;;;;;;18.63;51.40;95828.63;5055323;28;20194;-92
2023/02/25 01:50:09;;;;;;;2.30;2.10;;;;;;;18.44;50.93;95790.19;5052243;28;20186;-93
2023/02/25 01:52:36;;;;;;;2.30;2.10;;;;;;;18.72;51.05;95840.59;5019986;28;20217;-93
2023/02/25 01:55:04;;;;;;;2.40;2.20;;;;;;;18.63;50.80;95805.72;5026694;28;20178;-93
2023/02/25 01:57:33;;;;;;;2.70;2.50;;;;;;;18.47;50.79;95773.28;5024395;28;20185;-93
2023/02/25 02:00:00;;;;;;;2.43;2.23;;;;;;;17.86;50.58;95691.88;5038311;28;20184;-93
2023/02/25 02:02:28;;;;;;;2.03;1.80;;;;;;;17.59;50.76;95654.22;5024300;28;20205;-93
2023/02/25 02:04:55;;;;;;;2.63;1.93;;;;;;;20.34;51.00;96101.78;5035528;28;20211;-92
2023/02/25 02:07:23;;;;;;;2.40;2.00;;;;;;;18.67;50.79;95817.66;5047468;28;20190;-93
2023/02/25 02:09:57;;;;;;;2.30;2.10;;;;;;;20.33;50.69;96093.25;5027132;28;20220;-93
2023/02/25 02:12:35;;;;;;;2.80;1.97;;;;;;;18.17;50.71;95785.53;5032650;28;20194;-93
2023/02/25 02:15:04;;;;;;;2.20;2.00;;;;;;;19.83;50.76;96028.88;5026905;28;20200;-93
2023/02/25 02:17:42;;;;;;;2.40;2.20;;;;;;;18.68;50.67;95854.13;5023138;28;20242;-93
2023/02/25 02:20:26;;;;;;;2.27;2.07;;;;;;;19.01;50.75;95908.88;5050876;28;20192;-93
2023/02/25 02:23:06;;;;;;;2.43;2.23;;;;;;;20.37;50.66;96112.00;5043793;28;20186;-93
2023/02/25 02:26:05;;;;;;;2.23;2.03;;;;;;;17.71;50.63;95672.19;5051875;28;20189;-93
2023/02/25 02:28:44;;;;;;;2.00;1.87;;;;;;;20.38;50.57;96098.41;5035345;28;20188;-94
2023/02/25 02:31:19;;;;;;;2.53;2.20;;;;;;;17.01;50.39;95554.28;5056864;28;20216;-93
2023/02/25 02:34:10;;;;;;;1.83;1.73;;;;;;;20.36;50.79;96100.94;5047850;28;20204;-94
2023/02/25 02:37:08;;;;;;;2.00;1.90;;;;;;;18.48;50.92;95774.13;5058052;28;20186;-92
2023/02/25 02:40:14;;;;;;;2.00;1.90;;;;;;;20.34;50.72;96089.03;5065387;28;20166;-93
2023/02/25 02:42:46;;;;;;;2.00;1.90;;;;;;;18.40;50.66;95783.34;5050157;28;20205;-93
2023/02/25 02:45:40;;;;;;;1.93;1.83;;;;;;;18.92;50.81;95869.72;5044869;28;20186;-93
2023/02/25 02:48:16;;;;;;;1.87;1.77;;;;;;;17.74;50.64;95684.91;5032945;28;20203;-93
2023/02/25 02:50:50;;;;;;;2.17;2.03;;;;;;;17.21;50.76;95586.75;5039313;28;20194;-94
2023/02/25 02:53:27;;;;;;;2.10;2.00;;;;;;;18.54;50.82;95800.53;5041300;28;20207;-93
2023/02/25 02:55:55;;;;;;;2.37;2.17;;;;;;;20.32;50.86;96122.16;5036058;28;20186;-94
2023/02/25 02:58:44;;;;;;;2.10;1.90;;;;;;;17.57;50.25;95653.34;5044183;28;20183;-93
2023/02/25 03:01:14;;;;;;;2.00;1.90;;;;;;;17.38;50.68;95636.09;5027240;28;20189;-93
2023/02/25 03:03:45;;;;;;;2.13;1.93;;;;;;;17.66;50.77;95668.75;5038201;28;20158;-93
2023/02/25 03:06:18;;;;;;;2.10;1.90;;;;;;;17.84;50.59;95702.03;5019706;28;20217;-93
2023/02/25 03:08:48;;;;;;;2.37;2.17;;;;;;;17.28;50.58;95623.22;5017703;28;20182;-93
2023/02/25 03:11:17;;;;;;;2.10;1.90;;;;;;;18.61;50.55;95850.63;5021206;28;20205;-93
2023/02/25 03:13:44;;;;;;;2.33;2.13;;;;;;;18.22;50.49;95768.66;5058865;28;20217;-94
2023/02/25 03:16:13;;;;;;;2.20;1.90;;;;;;;17.93;50.69;95734.34;5033871;28;20193;-93
2023/02/25 03:18:46;;;;;;;2.00;1.90;;;;;;;17.93;50.85;95752.13;5035365;28;20203;-93
2023/02/25 03:21:22;;;;;;;2.00;1.90;;;;;;;20.32;50.65;96146.81;5020849;28;20188;-93
2023/02/25 03:23:49;;;;;;;2.07;1.73;;;;;;;18.01;50.57;95755.63;5051837;28;20173;-94
2023/02/25 03:26:25;;;;;;;2.33;1.70;;;;;;;19.65;50.67;96066.88;5018682;28;20221;-93
2023/02/25 03:28:53;;;;;;;2.10;1.90;;;;;;;20.33;50.87;96168.91;5018614;28;20168;-93
2023/02/25 03:31:33;;;;;;;2.10;1.90;;;;;;;20.32;50.82;96157.00;5026788;28;20194;-93
2023/02/25 03:34:05;;;;;;;1.70;1.60;;;;;;;20.32;50.73;96164.66;5050014;28;20183;-93
2023/02/25 03:36:41;;;;;;;1.80;1.70;;;;;;;17.50;50.87;95686.25;5040301;28;20185;-94
2023/02/25 03:39:18;;;;;;;1.80;1.70;;;;;;;17.50;50.73;95704.03;5024210;28;20193;-94
2023/02/25 03:41:51;;;;;;;1.80;1.70;;;;;;;18.40;50.90;95859.63;5014115;28;20201;-93
2023/02/25 03:44:21;;;;;;;1.60;1.50;;;;;;;17.53;50.80;95722.69;5015229;28;20205;-93
2023/02/25 03:46:48;;;;;;;2.10;2.00;;;;;;;17.97;50.51;95781.84;5036500;28;20180;-93
2023/02/25 03:49:19;;;;;;;3.30;1.73;;;;;;;18.37;50.65;95864.63;5043609;28;20186;-92
2023/02/25 03:51:48;;;;;;;2.20;2.00;;;;;;;18.56;50.76;95880.22;5024631;28;20197;-93
2023/02/25 03:54:15;;;;;;;1.90;1.80;;;;;;;18.68;50.97;95918.56;5025276;28;20187;-93
2023/02/25 03:56:44;;;;;;;1.73;1.63;;;;;;;17.70;50.46;95767.00;5020460;28;20197;-93
2023/02/25 03:59:11;;;;;;;1.97;1.87;;;;;;;17.66;50.61;95760.19;5040036;28;20197;-93
2023/02/25 04:01:38;;;;;;;1.80;1.70;;;;;;;18.20;50.51;95862.72;5017283;28;20206;-93
2023/02/25 04:04:05;;;;;;;1.90;1.80;;;;;;;18.71;50.41;95920.34;5021815;28;20181;-93
2023/02/25 04:06:32;;;;;;;1.80;1.70;;;;;;;18.55;50.56;95903.09;5033369;28;20241;-93
2023/02/25 04:09:00;;;;;;;2.10;1.70;;;;;;;20.05;50.58;96161.72;5039466;28;20217;-93
2023/02/25 04:11:26;;;;;;;1.63;1.53;;;;;;;19.84;50.69;96127.44;5022026;28;20212;-93
2023/02/25 04:13:53;;;;;;;1.90;1.70;;;;;;;18.24;50.71;95858.53;5020312;28;20182;-93
2023/02/25 04:16:20;;;;;;;1.70;1.60;;;;;;;18.71;50.62;95938.97;5025032;28;20178;-93
2023/02/25 04:18:48;;;;;;;1.60;1.50;;;;;;;17.97;50.51;95838.59;5019944;28;20182;-93
2023/02/25 04:21:27;;;;;;;1.80;1.70;;;;;;;19.36;50.48;96088.53;5026973;28;20208;-94
2023/02/25 04:23:53;;;;;;;1.73;1.63;;;;;;;18.12;50.46;95859.16;5032402;28;20193;-93
2023/02/25 04:26:20;;;;;;;1.67;1.57;;;;;;;18.70;50.71;95950.00;5029195;28;20188;-93
2023/02/25 04:28:48;;;;;;;1.97;1.83;;;;;;;18.56;50.55;95912.47;5041455;28;20185;-93
2023/02/25 04:31:15;;;;;;;1.80;1.70;;;;;;;17.83;50.69;95793.47;5029495;28;20213;-93
2023/02/25 04:33:43;;;;;;;2.00;1.70;;;;;;;18.52;50.52;95895.44;5013563;28;20205;-93
2023/02/25 04:36:26;;;;;;;2.07;1.90;;;;;;;20.33;50.74;96204.63;5042609;28;20237;-94
2023/02/25 04:38:53;;;;;;;2.00;1.90;;;;;;;19.84;50.66;96136.81;5029359;28;20241;-94
2023/02/25 04:41:20;;;;;;;1.87;1.70;;;;;;;18.47;50.77;95914.88;5036485;28;20177;-93
2023/02/25 04:43:47;;;;;;;1.90;1.80;;;;;;;19.82;50.68;96124.03;5023551;28;20211;-93
2023/02/25 04:46:14;;;;;;;1.70;1.60;;;;;;;18.64;50.66;95942.28;5043346;28;20228;-93
2023/02/25 04:48:41;;;;;;;1.83;1.73;;;;;;;18.29;50.70;95877.25;5019450;28;20186;-93
2023/02/25 04:51:08;;;;;;;1.60;1.50;;;;;;;17.70;50.61;95761.91;5043123;28;20203;-93
2023/02/25 04:53:35;;;;;;;1.70;1.60;;;;;;;18.20;50.61;95842.38;5041092;28;20220;-94
2023/02/25 04:56:03;;;;;;;2.27;1.80;;;;;;;19.22;50.74;96012.72;5034968;28;20194;-94
2023/02/25 04:58:31;;;;;;;1.80;1.60;;;;;;;17.95;50.42;95830.06;5050844;28;20181;-93
2023/02/25 05:01:01;;;;;;;1.50;1.40;;;;;;;18.23;50.55;95882.22;5046130;28;20213;-93
2023/02/25 05:03:28;;;;;;;2.87;1.87;;;;;;;17.29;50.72;95736.66;5019602;28;20241;-93
2023/02/25 05:05:55;;;;;;;1.80;1.70;;;;;;;17.46;50.66;95766.59;5052309;28;21432;-93
2023/02/25 05:08:22;;;;;;;1.80;1.70;;;;;;;17.32;50.53;95717.22;5034770;28;20216;-93
2023/02/25 05:10:49;;;;;;;1.60;1.50;;;;;;;17.50;50.74;95752.28;5040515;28;20209;-93
2023/02/25 05:13:16;;;;;;;1.63;1.53;;;;;;;19.70;50.76;96128.09;5044649;28;20206;-94
2023/02/25 05:15:43;;;;;;;2.00;1.70;;;;;;;18.57;50.62;95947.25;5016268;28;20223;-93
2023/02/25 05:18:10;;;;;;;1.60;1.50;;;;;;;20.31;50.76;96240.34;5024841;28;20249;-93
2023/02/25 05:20:41;;;;;;;1.60;1.50;;;;;;;18.30;50.67;95928.97;5034575;28;20205;-93
2023/02/25 05:23:09;;;;;;;1.70;1.60;;;;;;;19.53;50.57;96104.06;5012286;28;20202;-93
2023/02/25 05:25:40;;;;;;;1.90;1.80;;;;;;;18.51;50.61;95963.28;5033054;28;20198;-94
2023/02/25 05:28:07;;;;;;;1.60;1.43;;;;;;;18.30;50.42;95928.97;5044661;28;20212;-93
2023/02/25 05:30:35;;;;;;;1.67;1.57;;;;;;;17.88;50.71;95827.41;5037624;28;20206;-93
2023/02/25 05:33:03;;;;;;;1.53;1.43;;;;;;;18.70;50.75;95964.41;5041484;28;20194;-93
2023/02/25 05:35:31;;;;;;;1.70;1.60;;;;;;;18.27;50.54;95885.69;5035968;28;20217;-92
2023/02/25 05:37:58;;;;;;;1.80;1.70;;;;;;;19.20;50.63;96050.03;5035780;28;20190;-93
2023/02/25 05:40:25;;;;;;;1.77;1.67;;;;;;;20.35;50.61;96243.78;5015658;28;20210;-93
2023/02/25 05:42:52;;;;;;;1.70;1.60;;;;;;;18.04;50.59;95862.44;5035009;28;20200;-93
2023/02/25 05:45:19;;;;;;;1.30;1.30;;;;;;;18.58;50.67;95956.56;5023583;28;20189;-92
2023/02/25 05:47:45;;;;;;;1.60;1.50;;;;;;;17.77;50.94;95801.00;5035871;28;20189;-92
2023/02/25 05:50:12;;;;;;;1.93;1.50;;;;;;;19.12;50.41;96039.72;5026169;28;20189;-91
2023/02/25 05:52:38;;;;;;;1.70;1.60;;;;;;;19.43;50.63;96113.28;5049144;28;20230;-93
2023/02/25 05:55:08;;;;;;;1.73;1.57;;;;;;;18.03;50.63;95865.81;5021921;28;20202;-93
2023/02/25 05:57:34;;;;;;;1.40;1.30;;;;;;;17.41;50.59;95788.47;5027254;28;20197;-93
2023/02/25 06:00:08;;;;;;;1.30;1.23;;;;;;;18.15;50.39;95922.78;5024402;28;20181;-94
2023/02/25 06:02:35;;;;;;;1.70;1.50;;;;;;;18.42;50.54;95973.28;5055985;28;20213;-93
2023/02/25 06:05:02;;;;;;;2.40;1.50;;;;;;;17.81;50.43;95846.81;5022838;28;20441;-93
2023/02/25 06:07:30;;;;;;;2.83;1.60;;;;;;;19.81;50.62;96186.03;5030040;28;20179;-93
2023/02/25 06:09:59;;;;;;;1.80;1.70;;;;;;;18.52;50.41;95994.63;5053838;28;20188;-93
2023/02/25 06:12:30;;;;;;;1.80;1.70;;;;;;;17.72;50.31;95859.34;5024436;28;20194;-94
2023/02/25 06:14:57;;;;;;;1.63;1.53;;;;;;;18.16;50.51;95921.09;5060997;28;20186;-93
2023/02/25 06:17:24;;;;;;;3.40;1.57;;;;;;;18.46;50.63;95959.78;5025168;28;20204;-94
2023/02/25 06:19:51;;;;;;;5.40;1.37;;;;;;;18.04;50.45;95913.25;5056207;28;20196;-94
2023/02/25 06:22:19;;;;;;;1.60;1.50;;;;;;;17.80;50.78;95860.31;5024107;28;20178;-94
2023/02/25 06:30:10;;;;;;;1.70;1.60;;;;;;;19.45;50.46;96166.78;4126630;26;20193;-93
2023/02/25 06:32:36;;;;;;;3.10;1.73;;;;;;;18.03;50.53;95916.66;5029855;28;20226;-93
2023/02/25 06:35:05;;;;;;;2.50;1.63;;;;;;;18.17;50.36;95971.09;5050601;28;20208;-94
2023/02/25 06:37:32;;;;;;;1.87;1.53;;;;;;;19.58;50.34;96181.44;5028321;28;20249;-93
2023/02/25 06:39:58;;;;;;;4.70;1.53;;;;;;;18.19;50.57;95961.84;5049639;28;20186;-92
2023/02/25 06:42:25;;;;;;;2.17;1.67;;;;;;;17.66;50.03;95856.69;5042461;28;20178;-93
2023/02/25 06:44:52;;;;;;;1.83;1.50;;;;;;;17.90;50.12;95904.53;5046904;28;20186;-92
2023/02/25 06:47:21;;;;;;;5.27;1.60;;;;;;;18.17;50.29;95954.19;5068664;28;20209;-94
2023/02/25 06:49:48;;;;;;;1.70;1.60;;;;;;;19.75;50.30;96219.06;5027414;28;20200;-94
2023/02/25 06:52:23;;;;;;;2.27;1.60;;;;;;;17.27;49.92;95797.53;5043263;28;20236;-94
2023/02/25 06:54:53;;;;;;;2.23;1.60;;;;;;;17.16;50.00;95793.06;5041080;28;20181;-93
2023/02/25 06:57:20;;;;;;;4.87;1.70;;;;;;;18.01;49.34;95914.09;5023876;28;20210;-93
2023/02/25 06:59:47;;;;;;;2.43;1.70;;;;;;;17.95;49.05;95908.84;5043242;28;20181;-94
2023/02/25 07:02:14;;;;;;;3.60;1.90;;;;;;;18.20;49.53;95954.22;5028530;28;20194;-94
2023/02/25 07:04:40;;;;;;;3.97;1.83;;;;;;;18.71;49.37;96033.13;5034107;28;20205;-93
2023/02/25 07:07:09;;;;;;;2.00;1.73;;;;;;;17.95;49.31;95911.41;5044411;28;20232;-93
2023/02/25 07:09:37;;;;;;;1.97;1.57;;;;;;;18.61;49.53;96030.41;5043323;28;20197;-94
2023/02/25 07:12:04;;;;;;;4.77;1.70;;;;;;;18.45;49.27;96005.53;5051655;28;20265;-94
2023/02/25 07:14:30;;;;;;;1.90;1.40;;;;;;;17.34;49.61;95816.25;5068585;28;20182;-94
2023/02/25 07:16:57;;;;;;;2.33;1.80;;;;;;;18.76;49.67;96064.59;5026870;28;20205;-93
2023/02/25 07:19:25;;;;;;;2.17;1.50;;;;;;;18.74;49.38;96047.59;5041059;28;20177;-94
2023/02/25 07:21:53;;;;;;;1.60;1.50;;;;;;;18.18;49.44;95973.69;5030541;28;20200;-94
2023/02/25 07:24:22;;;;;;;3.60;2.20;;;;;;;18.29;49.30;95981.50;5025948;28;20405;-93
2023/02/25 07:26:49;;;;;;;2.20;1.63;;;;;;;18.68;49.37;96033.06;5031262;28;20236;-94
2023/02/25 07:29:16;;;;;;;1.77;1.60;;;;;;;18.97;49.44;96090.41;5028591;28;20206;-94
2023/02/25 07:31:44;;;;;;;1.83;1.67;;;;;;;19.58;49.55;96199.28;5017290;28;20198;-94
2023/02/25 07:34:14;;;;;;;1.60;1.50;;;;;;;19.07;49.48;96121.97;5151315;23;20288;-94
2023/02/25 07:36:41;;;;;;;1.97;1.60;;;;;;;18.73;49.21;96048.41;5090174;28;20181;-91
2023/02/25 07:39:10;;;;;;;3.07;1.60;;;;;;;18.71;49.50;96048.38;5068483;28;20173;-92
2023/02/25 07:41:37;;;;;;;2.90;1.70;;;;;;;18.18;49.30;95967.75;5050138;28;20177;-93
2023/02/25 07:44:04;;;;;;;1.70;1.40;;;;;;;17.87;49.43;95905.34;5079243;28;20181;-92
2023/02/25 07:46:31;;;;;;;1.60;1.50;;;;;;;19.32;49.31;96142.81;5061684;28;20192;-91
2023/02/25 07:48:57;;;;;;;2.23;1.70;;;;;;;19.45;50.08;96170.19;5089136;28;20176;-93
2023/02/25 07:51:24;;;;;;;1.80;1.40;;;;;;;20.01;49.27;96274.72;5090020;28;20242;-93
2023/02/25 07:53:55;;;;;;;4.50;1.70;;;;;;;19.33;49.59;96136.03;5060383;28;20253;-92
2023/02/25 07:56:23;;;;;;;5.37;1.50;;;;;;;19.44;49.52;96147.22;5057755;28;20196;-92
2023/02/25 07:58:49;;;;;;;1.60;1.50;;;;;;;19.40;49.37;96154.00;5072649;28;20192;-93
2023/02/25 08:01:19;;;;;;;2.30;1.67;;;;;;;19.93;49.33;96218.53;5080558;28;20180;-92
2023/02/25 08:03:48;;;;;;;3.90;1.80;;;;;;;19.23;49.43;96119.72;5088088;28;20180;-93
2023/02/25 08:06:14;;;;;;;1.53;1.43;;;;;;;19.52;49.22;96156.72;5076195;28;20227;-91
2023/02/25 08:08:41;;;;;;;1.60;1.50;;;;;;;18.69;49.13;96029.72;5096502;28;20177;-93
2023/02/25 08:11:08;;;;;;;1.70;1.60;;;;;;;19.42;49.31;96164.19;5084496;28;20196;-92
2023/02/25 08:13:35;;;;;;;2.57;1.70;;;;;;;19.20;49.38;96113.69;5086280;28;20252;-93
2023/02/25 08:16:06;;;;;;;2.53;1.70;;;;;;;19.51;49.40;96157.53;5056223;28;20201;-91
2023/02/25 08:18:33;;;;;;;2.80;1.50;;;;;;;19.05;49.07;96088.00;5089962;28;20184;-93
2023/02/25 08:21:00;;;;;;;1.50;1.40;;;;;;;18.97;49.23;96070.03;5080919;28;20180;-91
2023/02/25 08:23:29;;;;;;;1.40;1.30;;;;;;;18.16;49.12;95943.97;5076974;28;20188;-93
2023/02/25 08:25:56;;;;;;;1.97;1.50;;;;;;;19.32;49.30;96132.63;5072120;28;20209;-91
2023/02/25 08:28:24;;;;;;;3.00;1.50;;;;;;;19.90;49.45;96215.94;5054006;28;20223;-92
2023/02/25 08:30:51;;;;;;;4.30;1.50;;;;;;;18.95;49.19;96048.78;5096711;28;20200;-92
2023/02/25 08:33:18;;;;;;;1.90;1.43;;;;;;;19.52;49.51;96148.22;5087977;28;20196;-92
2023/02/25 08:35:45;;;;;;;2.23;1.50;;;;;;;18.20;49.19;95931.34;5067631;28;20210;-93
2023/02/25 08:38:12;;;;;;;1.80;1.70;;;;;;;18.51;48.49;96010.72;5077451;28;20249;-93
2023/02/25 08:40:39;;;;;;;4.00;1.70;;;;;;;18.70;47.15;96022.91;5089490;23;20213;-93
2023/02/25 08:43:06;;;;;;;4.13;2.30;;;;;;;18.79;45.76;96048.53;5036360;28;20194;-93
2023/02/25 08:45:33;;;;;;;4.47;2.30;;;;;;;18.12;45.55;95942.22;5040938;28;20225;-93
2023/02/25 08:48:00;;;;;;;6.60;2.27;;;;;;;18.48;46.05;96016.63;5023179;28;20216;-92
2023/02/25 08:50:27;;;;;;;3.47;2.23;;;;;;;19.96;46.82;96244.91;5013840;28;20206;-92
2023/02/25 08:52:54;;;;;;;2.70;2.07;;;;;;;19.60;47.11;96205.25;5028649;28;20206;-92
2023/02/25 08:55:23;;;;;;;3.03;2.10;;;;;;;19.36;47.60;96148.81;5031399;28;20206;-92
2023/02/25 08:57:51;;;;;;;2.97;2.33;;;;;;;19.44;47.95;96176.13;5031888;28;20206;-91
2023/02/25 09:00:18;;;;;;;4.83;2.00;;;;;;;19.42;47.97;96182.03;5032994;28;20217;-92
2023/02/25 09:02:44;;;;;;;4.77;2.20;;;;;;;19.04;47.53;96110.03;5045905;28;20190;-93
2023/02/25 09:05:11;;;;;;;7.43;2.40;;;;;;;19.26;47.77;96142.69;5020720;28;20220;-92
2023/02/25 09:07:38;;;;;;;10.30;3.10;;;;;;;19.39;48.14;96172.63;5037326;28;20204;-92
2023/02/25 09:10:06;;;;;;;36.40;4.03;;;;;;;18.90;48.31;96103.00;5038102;28;20193;-93
2023/02/25 09:12:32;;;;;;;74.67;6.17;;;;;;;19.59;48.44;96206.06;5021730;28;20210;-91
2023/02/25 09:14:59;;;;;;;87.73;8.33;;;;;;;18.21;48.37;95960.19;5020841;28;20185;-93
2023/02/25 09:17:26;;;;;;;84.17;8.50;;;;;;;18.98;48.82;96115.03;5051604;28;20192;-91
2023/02/25 09:19:52;;;;;;;105.23;10.23;;;;;;;19.36;48.71;96159.84;5053304;28;20190;-92
2023/02/25 09:22:19;;;;;;;125.93;12.93;;;;;;;20.23;48.98;96325.25;5038038;28;20198;-92
2023/02/25 09:24:46;;;;;;;132.00;12.40;;;;;;;18.88;48.74;96085.16;5045587;28;20202;-92
2023/02/25 09:27:15;;;;;;;127.77;11.57;;;;;;;18.32;48.89;96006.97;5043955;28;20281;-92
2023/02/25 09:29:45;;;;;;;136.90;12.10;;;;;;;19.33;48.48;96161.50;5053491;28;20232;-91
2023/02/25 09:32:18;;;;;;;75.30;9.67;;;;;;;17.57;48.84;95868.38;5033529;28;20255;-91
2023/02/25 09:34:47;;;;;;;94.83;11.07;;;;;;;18.66;49.05;96038.97;5032351;28;20186;-91
2023/02/25 09:37:18;;;;;;;95.60;10.93;;;;;;;18.41;48.90;96036.84;5033982;28;20214;-91
2023/02/25 09:39:47;;;;;;;79.63;9.67;;;;;;;19.68;48.96;96252.97;5043681;28;20191;-92
2023/02/25 09:42:19;;;;;;;54.40;8.30;;;;;;;17.35;48.87;95840.84;5032937;28;20369;-92
2023/02/25 09:44:52;;;;;;;81.33;9.90;;;;;;;18.06;49.10;95948.03;5063498;28;20209;-90
2023/02/25 09:47:35;;;;;;;68.47;8.90;;;;;;;20.29;49.23;96330.44;5033229;28;20210;-91
2023/02/25 09:50:07;;;;;;;70.00;8.80;;;;;;;18.20;49.17;95972.03;5048547;28;20252;-90
2023/02/25 09:52:41;;;;;;;88.23;9.37;;;;;;;19.45;48.98;96203.31;5065168;28;20256;-93
2023/02/25 09:55:20;;;;;;;70.87;9.10;;;;;;;18.24;49.06;95990.75;5028692;28;20189;-91
2023/02/25 09:58:07;;;;;;;51.00;6.77;;;;;;;18.54;48.97;96056.56;5013857;28;20198;-91
2023/02/25 10:00:42;;;;;;;73.30;8.73;;;;;;;18.48;49.41;96019.19;5032654;28;20214;-91
2023/02/25 10:03:24;;;;;;;48.80;5.83;;;;;;;19.29;45.76;96159.72;5039010;28;20194;-90
2023/02/25 10:05:56;;;;;;;35.73;5.63;;;;;;;18.29;45.47;95984.03;5069964;28;20221;-93
2023/02/25 10:08:29;;;;;;;24.83;5.23;;;;;;;19.32;45.59;96175.91;5030422;28;20190;-94
2023/02/25 10:10:57;;;;;;;32.47;5.33;;;;;;;20.26;46.07;96330.41;5053645;28;20183;-93
2023/02/25 10:13:53;;;;;;;25.80;5.37;;;;;;;17.25;46.03;95836.41;5053782;28;20225;-94
2023/02/25 10:16:57;;;;;;;29.43;5.30;;;;;;;20.27;46.28;96332.97;5495054;23;20211;-93
2023/02/25 10:19:37;;;;;;;38.57;5.87;;;;;;;20.27;46.63;96327.88;4999934;28;20199;-93
2023/02/25 10:24:48;;;;;;;31.07;4.80;;;;;;;18.06;47.01;95950.56;5523262;22;20285;-93
2023/02/25 10:27:30;;;;;;;35.63;5.00;;;;;;;19.13;47.41;96143.28;5013946;23;20226;-93
2023/02/25 10:30:02;;;;;;;41.00;5.57;;;;;;;19.68;47.40;96235.13;4991326;28;20206;-93
2023/02/25 10:32:34;;;;;;;36.37;5.67;;;;;;;18.62;47.43;96029.59;4989509;28;20229;-93
2023/02/25 10:35:27;;;;;;;29.73;5.60;;;;;;;19.26;47.25;96140.13;4999219;28;20206;-93
2023/02/25 10:37:54;;;;;;;19.53;4.30;;;;;;;19.25;43.90;96155.38;4996673;28;20223;-93
2023/02/25 10:40:23;;;;;;;17.67;3.60;;;;;;;19.20;42.00;96141.72;4983368;28;20231;-92
2023/02/25 10:42:53;;;;;;;17.93;3.80;;;;;;;19.31;41.16;96164.03;4996154;28;20250;-92
2023/02/25 10:45:23;;;;;;;12.57;3.50;;;;;;;18.47;42.21;96009.81;4979072;28;20215;-92
2023/02/25 10:48:15;;;;;;;8.03;3.27;;;;;;;19.10;43.24;96142.41;4985120;28;20183;-92
2023/02/25 10:50:41;;;;;;;15.37;3.57;;;;;;;18.07;43.50;95937.06;4981599;28;20312;-92
2023/02/25 10:53:16;;;;;;;11.53;3.10;;;;;;;19.72;44.39;96241.97;5003036;28;20215;-92
2023/02/25 10:55:43;;;;;;;16.37;3.53;;;;;;;20.19;44.48;96303.09;5001117;28;20206;-92
2023/02/25 10:58:43;;;;;;;14.83;3.13;;;;;;;20.18;44.81;96293.72;4997088;28;20231;-93
2023/02/25 11:01:15;;;;;;;12.30;3.00;;;;;;;18.51;45.11;96024.31;4984078;28;20195;-92
2023/02/25 11:03:58;;;;;;;8.00;2.83;;;;;;;20.17;45.17;96303.06;4971192;28;20191;-92
2023/02/25 11:06:29;;;;;;;10.53;3.07;;;;;;;19.26;45.19;96152.00;4989070;28;20234;-92
2023/02/25 11:08:58;;;;;;;16.30;3.10;;;;;;;19.00;45.34;96099.78;4968468;28;20207;-92
2023/02/25 11:11:26;;;;;;;9.60;3.03;;;;;;;18.80;45.66;96065.53;4996368;28;20195;-93
2023/02/25 11:14:14;;;;;;;7.27;2.53;;;;;;;19.74;45.88;96217.38;4994355;28;20199;-93
2023/02/25 11:16:42;;;;;;;10.17;2.90;;;;;;;18.57;46.12;96014.25;4967451;28;20222;-92
2023/02/25 11:19:19;;;;;;;10.73;2.83;;;;;;;18.73;46.00;96031.47;4996705;28;20187;-92
2023/02/25 11:21:45;;;;;;;9.97;2.77;;;;;;;19.40;46.15;96153.13;5000037;28;20187;-94
2023/02/25 11:24:14;;;;;;;8.03;2.70;;;;;;;18.82;46.34;96051.09;4985969;28;20215;-92
2023/02/25 11:26:46;;;;;;;9.67;2.87;;;;;;;18.75;46.54;96037.44;4975416;28;20225;-92
2023/02/25 11:29:19;;;;;;;7.63;2.43;;;;;;;19.03;46.09;96099.81;4989453;28;20192;-92
2023/02/25 11:31:49;;;;;;;7.40;2.37;;;;;;;19.28;46.55;96135.97;5000486;28;20226;-93
2023/02/25 11:34:19;;;;;;;10.53;2.50;;;;;;;20.18;46.62;96263.09;5015658;28;20193;-93
2023/02/25 11:36:46;;;;;;;10.30;2.40;;;;;;;19.30;46.56;96129.19;5005583;28;20219;-92
2023/02/25 11:39:24;;;;;;;7.17;2.50;;;;;;;18.78;46.54;96027.31;4983154;28;20218;-93
2023/02/25 11:41:52;;;;;;;5.00;2.20;;;;;;;19.24;46.61;96095.94;4984980;28;20178;-92
2023/02/25 11:44:25;;;;;;;6.83;2.33;;;;;;;20.20;46.49;96254.66;4999241;28;20214;-93
2023/02/25 11:47:12;;;;;;;6.40;2.33;;;;;;;19.86;46.68;96179.31;5001460;28;20207;-92
2023/02/25 11:49:52;;;;;;;5.60;2.50;;;;;;;18.41;46.57;95941.03;4997968;28;20247;-93
2023/02/25 11:52:31;;;;;;;6.83;2.77;;;;;;;20.22;46.87;96240.22;4986646;28;20253;-92
2023/02/25 11:55:14;;;;;;;7.00;2.30;;;;;;;20.23;46.74;96234.28;5003793;28;20195;-92